createdAt,value
2018-01-16T00:00:16.825Z,7.12
2018-01-16T00:00:52.135Z,7.13
2018-01-16T00:01:27.446Z,7.15
2018-01-16T00:02:02.744Z,7.08
2018-01-16T00:02:38.367Z,7.12
2018-01-16T00:03:14.251Z,6.99
2018-01-16T00:03:49.789Z,7.07
2018-01-16T00:04:25.264Z,6.98
2018-01-16T00:05:00.916Z,7.04
2018-01-16T00:05:36.599Z,6.99
2018-01-16T00:06:12.018Z,6.97
2018-01-16T00:06:47.309Z,6.91
2018-01-16T00:07:22.455Z,6.95
2018-01-16T00:07:57.962Z,6.90
2018-01-16T00:08:33.296Z,6.86
2018-01-16T00:09:08.491Z,6.86
2018-01-16T00:09:43.720Z,6.83
2018-01-16T00:10:19.049Z,6.84
2018-01-16T00:10:54.929Z,6.90
2018-01-16T00:11:29.752Z,6.86
2018-01-16T00:12:05.290Z,6.71
2018-01-16T00:12:40.591Z,6.86
2018-01-16T00:13:15.714Z,6.80
2018-01-16T00:13:50.904Z,6.76
2018-01-16T00:14:26.337Z,6.73
2018-01-16T00:15:01.663Z,6.83
2018-01-16T00:15:36.996Z,6.73
2018-01-16T00:16:12.403Z,6.77
2018-01-16T00:16:47.737Z,6.69
2018-01-16T00:17:23.630Z,6.72
2018-01-16T00:17:58.856Z,6.73
2018-01-16T00:18:34.163Z,6.71
2018-01-16T00:19:09.631Z,6.76
2018-01-16T00:19:44.746Z,6.73
2018-01-16T00:20:20.091Z,6.72
2018-01-16T00:20:55.395Z,6.66
2018-01-16T00:21:30.626Z,6.68
2018-01-16T00:22:05.933Z,6.72
2018-01-16T00:22:41.470Z,6.73
2018-01-16T00:23:16.668Z,6.71
2018-01-16T00:23:52.102Z,6.79
2018-01-16T00:24:27.605Z,6.73
2018-01-16T00:25:03.570Z,6.76
2018-01-16T00:25:39.082Z,6.76
2018-01-16T00:26:14.308Z,6.69
2018-01-16T00:26:50.024Z,6.76
2018-01-16T00:27:25.262Z,6.71
2018-01-16T00:28:00.845Z,6.79
2018-01-16T00:28:36.278Z,6.68
2018-01-16T00:29:11.667Z,6.71
2018-01-16T00:29:46.889Z,6.80
2018-01-16T00:30:22.303Z,6.80
2018-01-16T00:30:57.625Z,6.83
2018-01-16T00:31:33.208Z,6.79
2018-01-16T00:32:08.534Z,6.84
2018-01-16T00:32:44.123Z,6.83
2018-01-16T00:33:19.660Z,6.83
2018-01-16T00:33:55.045Z,6.80
2018-01-16T00:34:30.475Z,6.84
2018-01-16T00:35:05.908Z,6.84
2018-01-16T00:35:42.944Z,6.87
2018-01-16T00:36:18.039Z,6.99
2018-01-16T00:36:53.468Z,6.97
2018-01-16T00:37:28.847Z,6.95
2018-01-16T00:38:04.273Z,6.99
2018-01-16T00:38:39.477Z,6.99
2018-01-16T00:39:14.800Z,6.95
2018-01-16T00:39:49.985Z,6.99
2018-01-16T00:40:25.345Z,7.04
2018-01-16T00:41:00.438Z,7.04
2018-01-16T00:41:35.859Z,7.01
2018-01-16T00:42:11.164Z,7.05
2018-01-16T00:42:46.688Z,7.04
2018-01-16T00:43:21.983Z,7.05
2018-01-16T00:43:57.415Z,7.02
2018-01-16T00:44:32.825Z,7.13
2018-01-16T00:45:07.959Z,7.05
2018-01-16T00:45:43.384Z,7.07
2018-01-16T00:46:18.810Z,7.08
2018-01-16T00:46:54.409Z,7.08
2018-01-16T00:47:29.840Z,7.09
2018-01-16T00:48:04.931Z,7.12
2018-01-16T00:48:40.451Z,7.15
2018-01-16T00:49:15.764Z,7.07
2018-01-16T00:49:51.083Z,7.07
2018-01-16T00:50:26.316Z,7.20
2018-01-16T00:51:01.634Z,7.07
2018-01-16T00:51:36.931Z,7.08
2018-01-16T00:52:12.264Z,7.17
2018-01-16T00:52:47.767Z,7.13
2018-01-16T00:53:23.105Z,7.12
2018-01-16T00:53:58.503Z,7.16
2018-01-16T00:54:33.645Z,7.09
2018-01-16T00:55:08.842Z,7.12
2018-01-16T00:55:44.093Z,7.07
2018-01-16T00:56:19.375Z,7.09
2018-01-16T00:56:54.707Z,7.12
2018-01-16T00:57:30.111Z,7.13
2018-01-16T00:58:05.533Z,7.16
2018-01-16T00:58:40.839Z,7.13
2018-01-16T00:59:16.269Z,7.13
2018-01-16T00:59:51.575Z,7.08
2018-01-16T01:00:27.038Z,7.08
2018-01-16T01:01:02.521Z,7.08
2018-01-16T01:01:37.980Z,7.08
2018-01-16T01:02:13.288Z,7.07
2018-01-16T01:02:48.421Z,7.05
2018-01-16T01:03:23.915Z,7.01
2018-01-16T01:03:59.147Z,6.99
2018-01-16T01:04:34.336Z,7.01
2018-01-16T01:05:10.064Z,7.02
2018-01-16T01:05:45.392Z,6.95
2018-01-16T01:06:20.844Z,6.97
2018-01-16T01:06:56.025Z,6.87
2018-01-16T01:07:31.435Z,7.01
2018-01-16T01:08:06.742Z,7.02
2018-01-16T01:08:42.464Z,7.01
2018-01-16T01:09:17.669Z,7.01
2018-01-16T01:09:53.096Z,6.91
2018-01-16T01:10:28.698Z,6.97
2018-01-16T01:11:04.149Z,7.09
2018-01-16T01:11:39.449Z,6.94
2018-01-16T01:12:14.772Z,7.02
2018-01-16T01:12:50.063Z,6.99
2018-01-16T01:13:25.790Z,7.01
2018-01-16T01:14:02.302Z,7.01
2018-01-16T01:14:38.116Z,7.02
2018-01-16T01:15:13.406Z,7.09
2018-01-16T01:15:49.050Z,7.05
2018-01-16T01:16:24.445Z,7.01
2018-01-16T01:16:59.882Z,7.01
2018-01-16T01:17:35.174Z,6.99
2018-01-16T01:18:10.399Z,7.04
2018-01-16T01:18:45.698Z,7.01
2018-01-16T01:19:21.019Z,7.04
2018-01-16T01:19:56.219Z,6.99
2018-01-16T01:20:31.649Z,7.05
2018-01-16T01:21:07.157Z,6.99
2018-01-16T01:21:42.686Z,6.98
2018-01-16T01:22:17.875Z,6.95
2018-01-16T01:22:53.182Z,6.84
2018-01-16T01:23:28.380Z,6.95
2018-01-16T01:24:03.600Z,6.97
2018-01-16T01:24:38.901Z,6.81
2018-01-16T01:25:14.128Z,6.89
2018-01-16T01:25:49.442Z,6.86
2018-01-16T01:26:25.661Z,6.71
2018-01-16T01:27:01.257Z,6.81
2018-01-16T01:27:36.878Z,6.81
2018-01-16T01:28:12.365Z,6.69
2018-01-16T01:28:47.680Z,6.76
2018-01-16T01:29:22.774Z,6.73
2018-01-16T01:30:01.123Z,6.81
2018-01-16T01:30:38.624Z,6.81
2018-01-16T01:31:14.268Z,6.80
2018-01-16T01:31:49.461Z,6.77
2018-01-16T01:32:24.984Z,6.72
2018-01-16T01:33:00.499Z,6.66
2018-01-16T01:33:36.042Z,6.69
2018-01-16T01:34:11.725Z,6.71
2018-01-16T01:34:47.850Z,6.79
2018-01-16T01:35:23.246Z,6.73
2018-01-16T01:35:58.605Z,6.69
2018-01-16T01:36:34.306Z,6.77
2018-01-16T01:37:09.644Z,6.68
2018-01-16T01:37:45.033Z,6.77
2018-01-16T01:38:20.460Z,6.68
2018-01-16T01:38:55.847Z,6.72
2018-01-16T01:39:31.182Z,6.73
2018-01-16T01:40:06.594Z,6.71
2018-01-16T01:40:44.018Z,6.66
2018-01-16T01:41:22.345Z,6.66
2018-01-16T01:41:57.680Z,6.68
2018-01-16T01:42:32.979Z,6.71
2018-01-16T01:43:08.523Z,6.76
2018-01-16T01:43:43.919Z,6.77
2018-01-16T01:44:19.142Z,6.66
2018-01-16T01:44:54.247Z,6.71
2018-01-16T01:45:29.667Z,6.71
2018-01-16T01:46:11.099Z,6.72
2018-01-16T01:46:48.216Z,6.83
2018-01-16T01:47:23.738Z,6.68
2018-01-16T01:47:58.970Z,6.73
2018-01-16T01:48:34.565Z,6.72
2018-01-16T01:49:09.989Z,6.71
2018-01-16T01:49:45.474Z,6.69
2018-01-16T01:50:20.795Z,6.63
2018-01-16T01:50:56.092Z,6.71
2018-01-16T01:51:34.669Z,6.76
2018-01-16T01:52:10.468Z,6.68
2018-01-16T01:52:45.801Z,6.72
2018-01-16T01:53:21.106Z,6.69
2018-01-16T01:53:56.336Z,6.71
2018-01-16T01:54:31.924Z,6.72
2018-01-16T01:55:07.349Z,6.72
2018-01-16T01:55:42.642Z,6.71
2018-01-16T01:56:18.292Z,6.73
2018-01-16T01:56:53.792Z,6.76
2018-01-16T01:57:29.325Z,6.69
2018-01-16T01:58:04.619Z,6.71
2018-01-16T01:58:40.129Z,6.66
2018-01-16T01:59:15.433Z,6.71
2018-01-16T01:59:50.860Z,6.61
2018-01-16T02:00:26.471Z,6.61
2018-01-16T02:01:01.897Z,6.69
2018-01-16T02:01:37.112Z,6.66
2018-01-16T02:02:12.433Z,6.56
2018-01-16T02:02:47.819Z,6.61
2018-01-16T02:03:23.350Z,6.62
2018-01-16T02:03:58.860Z,6.63
2018-01-16T02:04:34.289Z,6.66
2018-01-16T02:05:09.477Z,6.66
2018-01-16T02:05:44.703Z,6.65
2018-01-16T02:06:19.952Z,6.58
2018-01-16T02:06:55.062Z,6.65
2018-01-16T02:07:30.686Z,6.65
2018-01-16T02:08:05.805Z,6.66
2018-01-16T02:08:40.896Z,6.59
2018-01-16T02:09:16.337Z,6.63
2018-01-16T02:09:51.641Z,6.73
2018-01-16T02:10:27.073Z,6.66
2018-01-16T02:11:02.687Z,6.63
2018-01-16T02:11:38.359Z,6.56
2018-01-16T02:12:13.559Z,6.69
2018-01-16T02:12:48.878Z,6.66
2018-01-16T02:13:24.172Z,6.56
2018-01-16T02:13:59.628Z,6.62
2018-01-16T02:14:35.310Z,6.63
2018-01-16T02:15:11.049Z,6.62
2018-01-16T02:15:46.442Z,6.61
2018-01-16T02:16:21.908Z,6.66
2018-01-16T02:16:56.986Z,6.58
2018-01-16T02:17:32.434Z,6.59
2018-01-16T02:18:08.043Z,6.54
2018-01-16T02:18:43.679Z,6.59
2018-01-16T02:19:18.871Z,6.54
2018-01-16T02:19:54.304Z,6.63
2018-01-16T02:20:29.403Z,6.69
2018-01-16T02:21:04.819Z,6.69
2018-01-16T02:21:40.341Z,6.62
2018-01-16T02:22:15.577Z,6.69
2018-01-16T02:22:50.866Z,6.65
2018-01-16T02:23:26.004Z,6.51
2018-01-16T02:24:01.499Z,6.68
2018-01-16T02:24:36.931Z,6.66
2018-01-16T02:25:12.236Z,6.62
2018-01-16T02:25:47.769Z,6.65
2018-01-16T02:26:22.972Z,6.62
2018-01-16T02:26:58.428Z,6.63
2018-01-16T02:27:33.632Z,6.56
2018-01-16T02:28:08.965Z,6.66
2018-01-16T02:28:45.481Z,6.56
2018-01-16T02:29:20.715Z,6.62
2018-01-16T02:29:56.035Z,6.56
2018-01-16T02:30:31.460Z,6.68
2018-01-16T02:31:06.860Z,6.66
2018-01-16T02:31:42.116Z,6.65
2018-01-16T02:32:17.625Z,6.66
2018-01-16T02:32:52.856Z,6.68
2018-01-16T02:33:28.088Z,6.63
2018-01-16T02:34:03.894Z,6.62
2018-01-16T02:34:39.203Z,6.58
2018-01-16T02:35:14.440Z,6.58
2018-01-16T02:35:49.954Z,6.59
2018-01-16T02:36:25.591Z,6.54
2018-01-16T02:37:01.119Z,6.54
2018-01-16T02:37:36.559Z,6.54
2018-01-16T02:38:11.973Z,6.51
2018-01-16T02:38:47.566Z,6.54
2018-01-16T02:39:22.734Z,6.56
2018-01-16T02:39:58.377Z,6.56
2018-01-16T02:40:34.182Z,6.62
2018-01-16T02:41:09.536Z,6.61
2018-01-16T02:41:44.759Z,6.61
2018-01-16T02:42:20.202Z,6.61
2018-01-16T02:42:55.394Z,6.58
2018-01-16T02:43:30.719Z,6.54
2018-01-16T02:44:06.082Z,6.54
2018-01-16T02:44:41.537Z,6.63
2018-01-16T02:45:17.400Z,6.62
2018-01-16T02:45:52.723Z,6.58
2018-01-16T02:46:28.022Z,6.56
2018-01-16T02:47:03.783Z,6.51
2018-01-16T02:47:39.490Z,6.51
2018-01-16T02:48:14.707Z,6.51
2018-01-16T02:48:50.069Z,6.48
2018-01-16T02:49:25.301Z,6.53
2018-01-16T02:50:00.662Z,6.53
2018-01-16T02:50:35.988Z,6.50
2018-01-16T02:51:11.469Z,6.50
2018-01-16T02:51:46.829Z,6.56
2018-01-16T02:52:22.531Z,6.50
2018-01-16T02:52:57.980Z,6.48
2018-01-16T02:53:33.384Z,6.41
2018-01-16T02:54:08.745Z,6.54
2018-01-16T02:54:44.144Z,6.43
2018-01-16T02:55:19.487Z,6.46
2018-01-16T02:55:54.690Z,6.41
2018-01-16T02:56:30.219Z,6.51
2018-01-16T02:57:05.646Z,6.46
2018-01-16T02:57:40.890Z,6.51
2018-01-16T02:58:16.194Z,6.47
2018-01-16T02:58:51.231Z,6.51
2018-01-16T02:59:26.630Z,6.50
2018-01-16T03:00:02.058Z,6.47
2018-01-16T03:00:37.868Z,6.46
2018-01-16T03:01:13.297Z,6.44
2018-01-16T03:01:48.429Z,6.44
2018-01-16T03:02:23.559Z,6.43
2018-01-16T03:02:58.865Z,6.38
2018-01-16T03:03:34.490Z,6.33
2018-01-16T03:04:09.796Z,6.41
2018-01-16T03:04:45.023Z,6.35
2018-01-16T03:05:20.123Z,6.41
2018-01-16T03:05:55.459Z,6.40
2018-01-16T03:06:30.769Z,6.40
2018-01-16T03:07:06.320Z,6.40
2018-01-16T03:07:41.606Z,6.33
2018-01-16T03:08:17.229Z,6.33
2018-01-16T03:08:52.542Z,6.36
2018-01-16T03:09:28.069Z,6.29
2018-01-16T03:10:03.266Z,6.25
2018-01-16T03:10:38.980Z,6.26
2018-01-16T03:11:14.375Z,6.26
2018-01-16T03:11:50.007Z,6.21
2018-01-16T03:12:25.608Z,6.25
2018-01-16T03:13:01.017Z,6.30
2018-01-16T03:13:36.219Z,6.26
2018-01-16T03:14:11.536Z,6.28
2018-01-16T03:14:47.021Z,6.30
2018-01-16T03:15:22.251Z,6.32
2018-01-16T03:15:57.332Z,6.35
2018-01-16T03:16:32.648Z,6.35
2018-01-16T03:17:07.958Z,6.29
2018-01-16T03:17:43.382Z,6.29
2018-01-16T03:18:19.168Z,6.29
2018-01-16T03:18:54.382Z,6.35
2018-01-16T03:19:29.997Z,6.35
2018-01-16T03:20:05.704Z,6.32
2018-01-16T03:20:41.113Z,6.33
2018-01-16T03:21:16.449Z,6.28
2018-01-16T03:21:51.937Z,6.32
2018-01-16T03:22:27.282Z,6.30
2018-01-16T03:23:02.472Z,6.30
2018-01-16T03:23:37.902Z,6.30
2018-01-16T03:24:13.388Z,6.28
2018-01-16T03:24:48.930Z,6.28
2018-01-16T03:25:24.121Z,6.26
2018-01-16T03:25:59.743Z,6.28
2018-01-16T03:26:35.037Z,6.33
2018-01-16T03:27:10.380Z,6.26
2018-01-16T03:27:45.693Z,6.26
2018-01-16T03:28:21.138Z,6.26
2018-01-16T03:28:56.434Z,6.26
2018-01-16T03:29:31.754Z,6.21
2018-01-16T03:30:07.249Z,6.25
2018-01-16T03:30:42.562Z,6.14
2018-01-16T03:31:18.051Z,6.19
2018-01-16T03:31:53.671Z,6.16
2018-01-16T03:32:28.983Z,6.16
2018-01-16T03:33:04.305Z,6.06
2018-01-16T03:33:39.591Z,6.13
2018-01-16T03:34:14.729Z,6.07
2018-01-16T03:34:50.523Z,6.07
2018-01-16T03:35:25.767Z,6.04
2018-01-16T03:36:01.063Z,6.00
2018-01-16T03:36:36.276Z,6.04
2018-01-16T03:37:11.476Z,6.03
2018-01-16T03:37:46.814Z,5.96
2018-01-16T03:38:22.116Z,5.93
2018-01-16T03:38:57.532Z,5.92
2018-01-16T03:39:32.721Z,6.01
2018-01-16T03:40:08.040Z,5.98
2018-01-16T03:40:43.129Z,6.01
2018-01-16T03:41:18.468Z,6.09
2018-01-16T03:41:53.675Z,5.98
2018-01-16T03:42:29.228Z,6.06
2018-01-16T03:43:04.519Z,6.16
2018-01-16T03:43:39.951Z,6.07
2018-01-16T03:44:15.343Z,6.18
2018-01-16T03:44:50.874Z,6.13
2018-01-16T03:45:26.169Z,6.11
2018-01-16T03:46:02.102Z,6.14
2018-01-16T03:46:37.513Z,6.13
2018-01-16T03:47:12.660Z,6.18
2018-01-16T03:47:48.078Z,6.25
2018-01-16T03:48:23.299Z,6.26
2018-01-16T03:48:58.592Z,6.22
2018-01-16T03:49:34.032Z,6.22
2018-01-16T03:50:09.535Z,6.26
2018-01-16T03:50:45.075Z,6.25
2018-01-16T03:51:20.468Z,6.22
2018-01-16T03:51:55.908Z,6.22
2018-01-16T03:52:31.415Z,6.28
2018-01-16T03:53:06.521Z,6.22
2018-01-16T03:53:41.916Z,6.28
2018-01-16T03:54:17.548Z,6.30
2018-01-16T03:54:52.965Z,6.28
2018-01-16T03:55:28.275Z,6.21
2018-01-16T03:56:03.753Z,6.32
2018-01-16T03:56:39.066Z,6.21
2018-01-16T03:57:14.647Z,6.16
2018-01-16T03:57:49.686Z,6.22
2018-01-16T03:58:24.975Z,6.21
2018-01-16T03:59:00.595Z,6.25
2018-01-16T03:59:35.993Z,6.26
2018-01-16T04:00:11.215Z,6.26
2018-01-16T04:00:46.583Z,6.21
2018-01-16T04:01:22.091Z,6.25
2018-01-16T04:01:57.170Z,6.26
2018-01-16T04:02:32.511Z,6.26
2018-01-16T04:03:07.717Z,6.29
2018-01-16T04:03:43.048Z,6.25
2018-01-16T04:04:18.332Z,6.21
2018-01-16T04:04:53.988Z,6.29
2018-01-16T04:05:29.259Z,6.21
2018-01-16T04:06:04.478Z,6.25
2018-01-16T04:06:40.069Z,6.13
2018-01-16T04:07:15.296Z,6.18
2018-01-16T04:07:50.706Z,6.16
2018-01-16T04:08:26.432Z,6.10
2018-01-16T04:09:01.824Z,6.19
2018-01-16T04:09:37.440Z,6.04
2018-01-16T04:10:12.524Z,6.11
2018-01-16T04:10:47.833Z,6.14
2018-01-16T04:11:23.020Z,6.11
2018-01-16T04:11:58.035Z,6.10
2018-01-16T04:12:33.523Z,6.13
2018-01-16T04:13:08.770Z,5.98
2018-01-16T04:13:44.060Z,6.22
2018-01-16T04:14:19.492Z,6.14
2018-01-16T04:14:54.971Z,6.14
2018-01-16T04:15:30.190Z,6.26
2018-01-16T04:16:05.372Z,6.22
2018-01-16T04:16:40.690Z,6.13
2018-01-16T04:17:16.012Z,6.21
2018-01-16T04:17:51.283Z,6.19
2018-01-16T04:18:26.369Z,6.22
2018-01-16T04:19:02.084Z,6.26
2018-01-16T04:19:37.175Z,6.22
2018-01-16T04:20:12.585Z,6.28
2018-01-16T04:20:47.774Z,6.26
2018-01-16T04:21:23.285Z,6.28
2018-01-16T04:21:58.666Z,6.32
2018-01-16T04:22:34.099Z,6.28
2018-01-16T04:23:09.502Z,6.28
2018-01-16T04:23:45.015Z,6.33
2018-01-16T04:24:20.301Z,6.32
2018-01-16T04:24:55.814Z,6.30
2018-01-16T04:25:31.110Z,6.29
2018-01-16T04:26:06.423Z,6.30
2018-01-16T04:26:41.716Z,6.33
2018-01-16T04:27:17.241Z,6.30
2018-01-16T04:27:52.658Z,6.36
2018-01-16T04:28:27.975Z,6.40
2018-01-16T04:29:03.288Z,6.30
2018-01-16T04:29:38.711Z,6.40
2018-01-16T04:30:13.999Z,6.33
2018-01-16T04:30:49.142Z,6.30
2018-01-16T04:31:24.423Z,6.29
2018-01-16T04:31:59.956Z,6.38
2018-01-16T04:32:35.335Z,6.35
2018-01-16T04:33:10.579Z,6.33
2018-01-16T04:33:45.768Z,6.35
2018-01-16T04:34:20.998Z,6.33
2018-01-16T04:34:56.279Z,6.48
2018-01-16T04:35:31.693Z,6.40
2018-01-16T04:36:06.896Z,6.41
2018-01-16T04:36:42.218Z,6.47
2018-01-16T04:37:17.416Z,6.38
2018-01-16T04:37:52.745Z,6.35
2018-01-16T04:38:28.065Z,6.35
2018-01-16T04:39:03.586Z,6.35
2018-01-16T04:39:39.286Z,6.40
2018-01-16T04:40:14.516Z,6.40
2018-01-16T04:40:49.720Z,6.26
2018-01-16T04:41:25.152Z,6.29
2018-01-16T04:42:00.642Z,6.33
2018-01-16T04:42:36.262Z,6.26
2018-01-16T04:43:11.509Z,6.33
2018-01-16T04:43:47.125Z,6.22
2018-01-16T04:44:22.225Z,6.28
2018-01-16T04:44:57.648Z,6.30
2018-01-16T04:45:36.836Z,6.36
2018-01-16T04:46:12.157Z,6.26
2018-01-16T04:46:47.543Z,6.22
2018-01-16T04:47:22.676Z,6.21
2018-01-16T04:47:57.977Z,6.29
2018-01-16T04:48:33.722Z,6.26
2018-01-16T04:49:09.118Z,6.18
2018-01-16T04:49:44.434Z,6.28
2018-01-16T04:50:19.628Z,6.21
2018-01-16T04:50:54.545Z,6.26
2018-01-16T04:51:29.933Z,6.29
2018-01-16T04:52:05.374Z,6.25
2018-01-16T04:52:40.687Z,6.29
2018-01-16T04:53:16.158Z,6.21
2018-01-16T04:53:51.446Z,6.22
2018-01-16T04:54:26.773Z,6.18
2018-01-16T04:55:02.075Z,6.22
2018-01-16T04:55:37.400Z,6.06
2018-01-16T04:56:12.791Z,6.10
2018-01-16T04:56:48.120Z,6.10
2018-01-16T04:57:23.376Z,6.10
2018-01-16T04:57:58.608Z,6.07
2018-01-16T04:58:34.147Z,6.07
2018-01-16T04:59:09.479Z,6.03
2018-01-16T04:59:44.868Z,5.96
2018-01-16T05:00:20.100Z,6.06
2018-01-16T05:00:55.221Z,6.01
2018-01-16T05:01:30.356Z,5.89
2018-01-16T05:02:05.859Z,5.96
2018-01-16T05:02:41.525Z,5.93
2018-01-16T05:03:16.954Z,5.91
2018-01-16T05:03:52.179Z,5.96
2018-01-16T05:04:27.777Z,5.92
2018-01-16T05:05:03.403Z,5.92
2018-01-16T05:05:39.119Z,5.93
2018-01-16T05:06:14.247Z,5.96
2018-01-16T05:06:49.547Z,5.92
2018-01-16T05:07:24.582Z,5.88
2018-01-16T05:08:00.078Z,5.92
2018-01-16T05:08:35.418Z,5.92
2018-01-16T05:09:10.710Z,5.89
2018-01-16T05:09:46.239Z,5.86
2018-01-16T05:10:21.829Z,5.82
2018-01-16T05:10:57.260Z,5.83
2018-01-16T05:11:32.762Z,5.86
2018-01-16T05:12:08.092Z,5.83
2018-01-16T05:12:43.374Z,5.83
2018-01-16T05:13:18.700Z,5.83
2018-01-16T05:13:54.419Z,5.86
2018-01-16T05:14:29.752Z,5.96
2018-01-16T05:15:05.053Z,5.89
2018-01-16T05:15:40.469Z,5.86
2018-01-16T05:16:15.962Z,5.77
2018-01-16T05:16:51.389Z,5.96
2018-01-16T05:17:26.675Z,5.91
2018-01-16T05:18:02.093Z,5.83
2018-01-16T05:18:37.711Z,5.86
2018-01-16T05:19:13.039Z,5.86
2018-01-16T05:19:48.434Z,5.85
2018-01-16T05:20:23.962Z,5.83
2018-01-16T05:20:59.158Z,5.82
2018-01-16T05:21:34.584Z,5.86
2018-01-16T05:22:10.007Z,5.88
2018-01-16T05:22:45.426Z,5.86
2018-01-16T05:23:21.225Z,5.91
2018-01-16T05:23:56.870Z,5.86
2018-01-16T05:24:32.178Z,5.91
2018-01-16T05:25:07.597Z,5.77
2018-01-16T05:27:47.328Z,5.77
2018-01-16T05:28:22.532Z,5.82
2018-01-16T05:28:57.726Z,5.81
2018-01-16T05:29:32.938Z,5.81
2018-01-16T05:30:08.307Z,5.83
2018-01-16T05:30:43.616Z,5.81
2018-01-16T05:31:18.781Z,5.86
2018-01-16T05:31:54.190Z,5.77
2018-01-16T05:32:29.908Z,5.86
2018-01-16T05:33:05.325Z,5.77
2018-01-16T05:33:40.717Z,5.83
2018-01-16T05:34:15.730Z,5.78
2018-01-16T05:34:51.002Z,5.81
2018-01-16T05:35:26.606Z,5.85
2018-01-16T05:36:02.325Z,5.82
2018-01-16T05:36:37.868Z,5.77
2018-01-16T05:37:13.252Z,5.85
2018-01-16T05:37:48.656Z,5.86
2018-01-16T05:38:24.130Z,5.75
2018-01-16T05:38:59.778Z,5.78
2018-01-16T05:39:35.038Z,5.77
2018-01-16T05:40:10.239Z,5.78
2018-01-16T05:40:45.708Z,5.83
2018-01-16T05:41:21.108Z,5.83
2018-01-16T05:41:56.276Z,5.86
2018-01-16T05:42:31.801Z,5.74
2018-01-16T05:43:07.069Z,5.83
2018-01-16T05:43:42.702Z,5.78
2018-01-16T05:44:18.084Z,5.77
2018-01-16T05:44:53.579Z,5.78
2018-01-16T05:45:28.854Z,5.77
2018-01-16T05:46:04.152Z,5.82
2018-01-16T05:46:39.324Z,5.81
2018-01-16T05:47:14.642Z,5.82
2018-01-16T05:47:50.017Z,5.82
2018-01-16T05:48:25.425Z,5.83
2018-01-16T05:49:00.825Z,5.81
2018-01-16T05:49:36.657Z,5.86
2018-01-16T05:50:11.920Z,5.82
2018-01-16T05:50:47.131Z,5.82
2018-01-16T05:51:22.392Z,5.89
2018-01-16T05:51:57.496Z,5.86
2018-01-16T05:52:32.889Z,5.85
2018-01-16T05:53:08.100Z,5.77
2018-01-16T05:53:43.683Z,5.82
2018-01-16T05:54:18.920Z,5.81
2018-01-16T05:54:54.428Z,5.81
2018-01-16T05:55:29.737Z,5.83
2018-01-16T05:56:05.102Z,5.82
2018-01-16T05:56:40.528Z,5.81
2018-01-16T05:57:15.789Z,5.82
2018-01-16T05:57:51.302Z,5.86
2018-01-16T05:58:26.775Z,5.77
2018-01-16T05:59:02.107Z,5.82
2018-01-16T05:59:37.276Z,5.81
2018-01-16T06:00:12.682Z,5.91
2018-01-16T06:00:48.060Z,5.82
2018-01-16T06:01:23.378Z,5.81
2018-01-16T06:01:58.952Z,5.83
2018-01-16T06:02:34.450Z,5.85
2018-01-16T06:03:10.129Z,5.88
2018-01-16T06:03:45.642Z,5.85
2018-01-16T06:04:20.950Z,5.81
2018-01-16T06:04:56.704Z,5.81
2018-01-16T06:05:31.977Z,5.88
2018-01-16T06:06:07.174Z,5.86
2018-01-16T06:06:42.557Z,5.91
2018-01-16T06:07:18.075Z,5.91
2018-01-16T06:07:53.269Z,5.89
2018-01-16T06:08:28.685Z,5.92
2018-01-16T06:09:03.992Z,5.96
2018-01-16T06:09:39.510Z,5.96
2018-01-16T06:10:14.813Z,5.95
2018-01-16T06:10:50.323Z,5.95
2018-01-16T06:11:25.827Z,5.95
2018-01-16T06:12:01.046Z,5.95
2018-01-16T06:12:36.435Z,5.88
2018-01-16T06:13:11.658Z,6.01
2018-01-16T06:13:47.257Z,6.00
2018-01-16T06:14:22.604Z,6.03
2018-01-16T06:14:57.690Z,6.04
2018-01-16T06:15:33.207Z,6.00
2018-01-16T06:16:08.403Z,5.98
2018-01-16T06:16:43.824Z,6.01
2018-01-16T06:17:19.028Z,6.09
2018-01-16T06:17:54.448Z,6.10
2018-01-16T06:18:30.037Z,6.09
2018-01-16T06:19:05.685Z,6.03
2018-01-16T06:19:41.470Z,6.18
2018-01-16T06:20:17.077Z,6.26
2018-01-16T06:20:52.454Z,6.13
2018-01-16T06:21:27.763Z,6.21
2018-01-16T06:22:02.953Z,6.18
2018-01-16T06:22:38.460Z,6.25
2018-01-16T06:23:13.754Z,6.21
2018-01-16T06:23:49.722Z,6.19
2018-01-16T06:24:25.017Z,6.25
2018-01-16T06:25:00.420Z,6.26
2018-01-16T06:25:35.910Z,6.21
2018-01-16T06:26:11.827Z,6.26
2018-01-16T06:26:46.906Z,6.16
2018-01-16T06:27:22.113Z,6.18
2018-01-16T06:27:57.303Z,6.26
2018-01-16T06:28:32.841Z,6.18
2018-01-16T06:29:08.130Z,6.28
2018-01-16T06:29:43.481Z,6.26
2018-01-16T06:30:18.670Z,6.28
2018-01-16T06:30:54.203Z,6.33
2018-01-16T06:31:29.497Z,6.30
2018-01-16T06:32:04.724Z,6.32
2018-01-16T06:32:39.923Z,6.33
2018-01-16T06:33:15.287Z,6.30
2018-01-16T06:33:55.739Z,6.36
2018-01-16T06:34:32.806Z,6.40
2018-01-16T06:35:11.099Z,6.36
2018-01-16T06:35:46.422Z,6.33
2018-01-16T06:36:21.618Z,6.36
2018-01-16T06:36:57.268Z,6.33
2018-01-16T06:37:32.882Z,6.40
2018-01-16T06:38:08.427Z,6.40
2018-01-16T06:38:43.813Z,6.43
2018-01-16T06:39:19.078Z,6.35
2018-01-16T06:39:54.170Z,6.36
2018-01-16T06:40:29.480Z,6.43
2018-01-16T06:41:04.683Z,6.40
2018-01-16T06:41:39.905Z,6.36
2018-01-16T06:42:15.115Z,6.33
2018-01-16T06:42:50.433Z,6.28
2018-01-16T06:43:25.616Z,6.19
2018-01-16T06:44:02.144Z,6.28
2018-01-16T06:44:37.576Z,6.33
2018-01-16T06:45:13.088Z,6.30
2018-01-16T06:45:51.092Z,6.26
2018-01-16T06:46:26.519Z,6.33
2018-01-16T06:47:02.008Z,6.29
2018-01-16T06:47:37.456Z,6.30
2018-01-16T06:48:12.839Z,6.26
2018-01-16T06:48:48.268Z,6.29
2018-01-16T06:49:24.479Z,6.29
2018-01-16T06:49:59.823Z,6.29
2018-01-16T06:50:35.034Z,6.28
2018-01-16T06:51:10.458Z,6.29
2018-01-16T06:51:45.632Z,6.33
2018-01-16T06:52:20.955Z,6.35
2018-01-16T06:52:56.036Z,6.35
2018-01-16T06:53:31.380Z,6.29
2018-01-16T06:54:06.569Z,6.38
2018-01-16T06:54:42.157Z,6.36
2018-01-16T06:55:17.501Z,6.40
2018-01-16T06:55:52.917Z,6.40
2018-01-16T06:56:28.205Z,6.38
2018-01-16T06:57:03.526Z,6.36
2018-01-16T06:57:38.622Z,6.41
2018-01-16T06:58:13.833Z,6.36
2018-01-16T06:58:49.032Z,6.38
2018-01-16T06:59:24.352Z,6.33
2018-01-16T06:59:59.687Z,6.43
2018-01-16T07:00:35.117Z,6.41
2018-01-16T07:01:10.397Z,6.38
2018-01-16T07:01:45.825Z,6.40
2018-01-16T07:02:21.309Z,6.40
2018-01-16T07:02:56.637Z,6.50
2018-01-16T07:03:31.932Z,6.50
2018-01-16T07:04:07.250Z,6.41
2018-01-16T07:04:42.364Z,6.47
2018-01-16T07:05:17.775Z,6.47
2018-01-16T07:05:54.428Z,6.38
2018-01-16T07:06:29.689Z,6.46
2018-01-16T07:07:04.981Z,6.43
2018-01-16T07:07:40.307Z,6.50
2018-01-16T07:08:15.595Z,6.48
2018-01-16T07:08:51.015Z,6.51
2018-01-16T07:09:26.194Z,6.54
2018-01-16T07:10:01.551Z,6.46
2018-01-16T07:10:37.163Z,6.54
2018-01-16T07:11:12.383Z,6.54
2018-01-16T07:11:47.784Z,6.51
2018-01-16T07:12:23.600Z,6.54
2018-01-16T07:12:58.707Z,6.51
2018-01-16T07:13:34.036Z,6.48
2018-01-16T07:14:09.526Z,6.54
2018-01-16T07:14:44.882Z,6.51
2018-01-16T07:15:20.183Z,6.54
2018-01-16T07:15:55.504Z,6.48
2018-01-16T07:16:31.030Z,6.56
2018-01-16T07:17:06.667Z,6.44
2018-01-16T07:17:42.064Z,6.46
2018-01-16T07:18:17.190Z,6.43
2018-01-16T07:18:52.589Z,6.54
2018-01-16T07:19:27.918Z,6.47
2018-01-16T07:20:03.038Z,6.43
2018-01-16T07:20:38.409Z,6.40
2018-01-16T07:21:13.693Z,6.38
2018-01-16T07:21:49.098Z,6.40
2018-01-16T07:22:24.294Z,6.32
2018-01-16T07:22:59.694Z,6.30
2018-01-16T07:23:34.877Z,6.35
2018-01-16T07:24:10.282Z,6.36
2018-01-16T07:24:45.676Z,6.38
2018-01-16T07:25:21.010Z,6.41
2018-01-16T07:25:57.175Z,6.35
2018-01-16T07:26:32.691Z,6.46
2018-01-16T07:27:08.270Z,6.41
2018-01-16T07:27:43.871Z,6.36
2018-01-16T07:28:19.246Z,6.44
2018-01-16T07:28:54.558Z,6.46
2018-01-16T07:29:30.037Z,6.50
2018-01-16T07:30:05.299Z,6.51
2018-01-16T07:30:41.078Z,6.53
2018-01-16T07:31:16.480Z,6.54
2018-01-16T07:31:51.559Z,6.47
2018-01-16T07:32:26.963Z,6.56
2018-01-16T07:33:02.275Z,6.51
2018-01-16T07:33:37.871Z,6.51
2018-01-16T07:34:13.150Z,6.41
2018-01-16T07:34:48.557Z,6.48
2018-01-16T07:35:24.173Z,6.44
2018-01-16T07:35:59.399Z,6.41
2018-01-16T07:36:34.363Z,6.46
2018-01-16T07:37:09.676Z,6.50
2018-01-16T07:37:44.858Z,6.47
2018-01-16T07:38:20.266Z,6.51
2018-01-16T07:38:55.436Z,6.40
2018-01-16T07:39:30.854Z,6.41
2018-01-16T07:40:06.252Z,6.47
2018-01-16T07:40:41.855Z,6.46
2018-01-16T07:41:17.397Z,6.48
2018-01-16T07:41:52.821Z,6.46
2018-01-16T07:42:28.107Z,6.44
2018-01-16T07:43:03.725Z,6.48
2018-01-16T07:43:39.096Z,6.41
2018-01-16T07:44:14.514Z,6.48
2018-01-16T07:44:49.701Z,6.44
2018-01-16T07:45:25.333Z,6.48
2018-01-16T07:46:00.810Z,6.43
2018-01-16T07:46:36.341Z,6.48
2018-01-16T07:47:11.607Z,6.48
2018-01-16T07:47:46.913Z,6.50
2018-01-16T07:48:22.201Z,6.51
2018-01-16T07:48:57.642Z,6.43
2018-01-16T07:49:32.934Z,6.51
2018-01-16T07:50:08.531Z,6.54
2018-01-16T07:50:47.439Z,6.43
2018-01-16T07:51:22.648Z,6.47
2018-01-16T07:51:57.926Z,6.50
2018-01-16T07:52:33.243Z,6.47
2018-01-16T07:53:08.524Z,6.56
2018-01-16T07:53:43.736Z,6.51